<?xml version="1.0" encoding="UTF-8" standalone="no" ?>
<gpx xmlns="http://www.topografix.com/GPX/1/1" xmlns:xsi="http://www.w3.org/2001/XMLSchema-instance" xsi:schemaLocation="http://www.topografix.com/GPX/1/1 http://www.topografix.com/GPX/1/1/gpx.xsd" version="1.1" creator="VisuGPX - https://www.visugpx.com">
  <metadata>
    <name>orgeval aller</name>
    <desc><![CDATA[orgeval aller]]></desc>
  </metadata>
  <trk>
    <name><![CDATA[23 févr. 2014 10:17:52]]></name>
    <cmt><![CDATA[23 févr. 2014 10:17:52]]></cmt>
    <trkseg>
      <trkpt lat="48.86918" lon="2.00561">
        <ele>132.2</ele>
        <time>2014-02-23T09:17:53Z</time>
      </trkpt>
      <trkpt lat="48.86952" lon="2.00513">
        <ele>131.5</ele>
        <time>2014-02-23T09:17:56Z</time>
      </trkpt>
      <trkpt lat="48.86931" lon="2.0049">
        <ele>83</ele>
        <time>2014-02-23T09:18:14Z</time>
      </trkpt>
      <trkpt lat="48.8692" lon="2.00529">
        <ele>87</ele>
        <time>2014-02-23T09:18:52Z</time>
      </trkpt>
      <trkpt lat="48.8692" lon="2.00558">
        <ele>87</ele>
        <time>2014-02-23T09:19:05Z</time>
      </trkpt>
      <trkpt lat="48.86915" lon="2.00585">
        <ele>87</ele>
        <time>2014-02-23T09:19:28Z</time>
      </trkpt>
      <trkpt lat="48.86915" lon="2.00612">
        <ele>92</ele>
        <time>2014-02-23T09:19:48Z</time>
      </trkpt>
      <trkpt lat="48.86918" lon="2.0064">
        <ele>94</ele>
        <time>2014-02-23T09:20:07Z</time>
      </trkpt>
      <trkpt lat="48.86912" lon="2.00664">
        <ele>97</ele>
        <time>2014-02-23T09:20:37Z</time>
      </trkpt>
      <trkpt lat="48.86923" lon="2.00696">
        <ele>99</ele>
        <time>2014-02-23T09:21:16Z</time>
      </trkpt>
      <trkpt lat="48.86943" lon="2.00715">
        <ele>101</ele>
        <time>2014-02-23T09:21:27Z</time>
      </trkpt>
      <trkpt lat="48.86967" lon="2.0074">
        <ele>102</ele>
        <time>2014-02-23T09:22:05Z</time>
      </trkpt>
      <trkpt lat="48.86986" lon="2.00764">
        <ele>140</ele>
        <time>2014-02-23T09:22:36Z</time>
      </trkpt>
      <trkpt lat="48.87037" lon="2.00818">
        <ele>142.8</ele>
        <time>2014-02-23T09:24:07Z</time>
      </trkpt>
      <trkpt lat="48.87062" lon="2.00837">
        <ele>104</ele>
        <time>2014-02-23T09:24:12Z</time>
      </trkpt>
      <trkpt lat="48.87088" lon="2.00861">
        <ele>106</ele>
        <time>2014-02-23T09:24:23Z</time>
      </trkpt>
      <trkpt lat="48.87112" lon="2.00879">
        <ele>109</ele>
        <time>2014-02-23T09:24:48Z</time>
      </trkpt>
      <trkpt lat="48.8713" lon="2.0088">
        <ele>113</ele>
        <time>2014-02-23T09:25:08Z</time>
      </trkpt>
      <trkpt lat="48.87186" lon="2.00889">
        <ele>152.1</ele>
        <time>2014-02-23T09:25:50Z</time>
      </trkpt>
      <trkpt lat="48.87202" lon="2.00893">
        <ele>115</ele>
        <time>2014-02-23T09:26:06Z</time>
      </trkpt>
      <trkpt lat="48.8722" lon="2.00919">
        <ele>117</ele>
        <time>2014-02-23T09:26:27Z</time>
      </trkpt>
      <trkpt lat="48.8723" lon="2.00942">
        <ele>119</ele>
        <time>2014-02-23T09:26:39Z</time>
      </trkpt>
      <trkpt lat="48.87251" lon="2.00946">
        <ele>119</ele>
        <time>2014-02-23T09:27:00Z</time>
      </trkpt>
      <trkpt lat="48.87298" lon="2.01025">
        <ele>166.5</ele>
        <time>2014-02-23T09:28:39Z</time>
      </trkpt>
      <trkpt lat="48.87315" lon="2.01043">
        <ele>124</ele>
        <time>2014-02-23T09:28:46Z</time>
      </trkpt>
      <trkpt lat="48.87325" lon="2.01075">
        <ele>127</ele>
        <time>2014-02-23T09:29:05Z</time>
      </trkpt>
      <trkpt lat="48.87331" lon="2.01099">
        <ele>130</ele>
        <time>2014-02-23T09:29:22Z</time>
      </trkpt>
      <trkpt lat="48.87334" lon="2.01112">
        <ele>132</ele>
        <time>2014-02-23T09:29:53Z</time>
      </trkpt>
      <trkpt lat="48.87351" lon="2.0114">
        <ele>133</ele>
        <time>2014-02-23T09:30:18Z</time>
      </trkpt>
      <trkpt lat="48.87379" lon="2.01158">
        <ele>177.1</ele>
        <time>2014-02-23T09:34:02Z</time>
      </trkpt>
      <trkpt lat="48.87436" lon="2.01189">
        <ele>178</ele>
        <time>2014-02-23T09:34:23Z</time>
      </trkpt>
      <trkpt lat="48.87457" lon="2.01114">
        <ele>178</ele>
        <time>2014-02-23T09:35:07Z</time>
      </trkpt>
      <trkpt lat="48.87463" lon="2.01059">
        <ele>135</ele>
        <time>2014-02-23T09:35:32Z</time>
      </trkpt>
      <trkpt lat="48.87469" lon="2.01004">
        <ele>139</ele>
        <time>2014-02-23T09:36:08Z</time>
      </trkpt>
      <trkpt lat="48.87478" lon="2.00976">
        <ele>144</ele>
        <time>2014-02-23T09:36:18Z</time>
      </trkpt>
      <trkpt lat="48.8749" lon="2.00946">
        <ele>148</ele>
        <time>2014-02-23T09:36:35Z</time>
      </trkpt>
      <trkpt lat="48.87496" lon="2.00912">
        <ele>150</ele>
        <time>2014-02-23T09:36:55Z</time>
      </trkpt>
      <trkpt lat="48.875" lon="2.00883">
        <ele>153</ele>
        <time>2014-02-23T09:37:12Z</time>
      </trkpt>
      <trkpt lat="48.87504" lon="2.00846">
        <ele>155</ele>
        <time>2014-02-23T09:37:33Z</time>
      </trkpt>
      <trkpt lat="48.87512" lon="2.0082">
        <ele>157</ele>
        <time>2014-02-23T09:37:47Z</time>
      </trkpt>
      <trkpt lat="48.87525" lon="2.00797">
        <ele>157</ele>
        <time>2014-02-23T09:38:04Z</time>
      </trkpt>
      <trkpt lat="48.87534" lon="2.00771">
        <ele>157</ele>
        <time>2014-02-23T09:38:26Z</time>
      </trkpt>
      <trkpt lat="48.87541" lon="2.00743">
        <ele>158</ele>
        <time>2014-02-23T09:38:46Z</time>
      </trkpt>
      <trkpt lat="48.87548" lon="2.00703">
        <ele>157</ele>
        <time>2014-02-23T09:39:08Z</time>
      </trkpt>
      <trkpt lat="48.87553" lon="2.00681">
        <ele>156</ele>
        <time>2014-02-23T09:39:18Z</time>
      </trkpt>
      <trkpt lat="48.87559" lon="2.00652">
        <ele>152</ele>
        <time>2014-02-23T09:39:33Z</time>
      </trkpt>
      <trkpt lat="48.87566" lon="2.00625">
        <ele>151</ele>
        <time>2014-02-23T09:39:47Z</time>
      </trkpt>
      <trkpt lat="48.87575" lon="2.00593">
        <ele>150</ele>
        <time>2014-02-23T09:40:09Z</time>
      </trkpt>
      <trkpt lat="48.87582" lon="2.00565">
        <ele>149</ele>
        <time>2014-02-23T09:40:19Z</time>
      </trkpt>
      <trkpt lat="48.87589" lon="2.00537">
        <ele>148</ele>
        <time>2014-02-23T09:40:34Z</time>
      </trkpt>
      <trkpt lat="48.87598" lon="2.00506">
        <ele>146</ele>
        <time>2014-02-23T09:40:56Z</time>
      </trkpt>
      <trkpt lat="48.87607" lon="2.00476">
        <ele>147</ele>
        <time>2014-02-23T09:41:09Z</time>
      </trkpt>
      <trkpt lat="48.87616" lon="2.00447">
        <ele>147</ele>
        <time>2014-02-23T09:41:28Z</time>
      </trkpt>
      <trkpt lat="48.87621" lon="2.00423">
        <ele>147</ele>
        <time>2014-02-23T09:41:43Z</time>
      </trkpt>
      <trkpt lat="48.87634" lon="2.00378">
        <ele>148</ele>
        <time>2014-02-23T09:42:17Z</time>
      </trkpt>
      <trkpt lat="48.87639" lon="2.00352">
        <ele>148</ele>
        <time>2014-02-23T09:42:39Z</time>
      </trkpt>
      <trkpt lat="48.87646" lon="2.00323">
        <ele>148</ele>
        <time>2014-02-23T09:42:48Z</time>
      </trkpt>
      <trkpt lat="48.87665" lon="2.00221">
        <ele>173.9</ele>
        <time>2014-02-23T09:43:27Z</time>
      </trkpt>
      <trkpt lat="48.87714" lon="2.00065">
        <ele>175</ele>
        <time>2014-02-23T09:44:00Z</time>
      </trkpt>
      <trkpt lat="48.87774" lon="1.99917">
        <ele>175.8</ele>
        <time>2014-02-23T09:44:31Z</time>
      </trkpt>
      <trkpt lat="48.8782" lon="1.99896">
        <ele>176</ele>
        <time>2014-02-23T09:44:51Z</time>
      </trkpt>
      <trkpt lat="48.87839" lon="1.9988">
        <ele>176</ele>
        <time>2014-02-23T09:44:57Z</time>
      </trkpt>
      <trkpt lat="48.87945" lon="1.99778">
        <ele>176</ele>
        <time>2014-02-23T09:45:40Z</time>
      </trkpt>
      <trkpt lat="48.87945" lon="1.99735">
        <ele>151</ele>
        <time>2014-02-23T09:46:01Z</time>
      </trkpt>
      <trkpt lat="48.87941" lon="1.99699">
        <ele>145</ele>
        <time>2014-02-23T09:46:19Z</time>
      </trkpt>
      <trkpt lat="48.8794" lon="1.99671">
        <ele>143</ele>
        <time>2014-02-23T09:46:35Z</time>
      </trkpt>
      <trkpt lat="48.87943" lon="1.99635">
        <ele>141</ele>
        <time>2014-02-23T09:46:56Z</time>
      </trkpt>
      <trkpt lat="48.87945" lon="1.99571">
        <ele>140</ele>
        <time>2014-02-23T09:47:30Z</time>
      </trkpt>
      <trkpt lat="48.87945" lon="1.99535">
        <ele>137</ele>
        <time>2014-02-23T09:47:49Z</time>
      </trkpt>
      <trkpt lat="48.8795" lon="1.99405">
        <ele>176</ele>
        <time>2014-02-23T09:48:53Z</time>
      </trkpt>
      <trkpt lat="48.87948" lon="1.99317">
        <ele>176</ele>
        <time>2014-02-23T09:49:29Z</time>
      </trkpt>
      <trkpt lat="48.87953" lon="1.99228">
        <ele>142</ele>
        <time>2014-02-23T09:50:08Z</time>
      </trkpt>
      <trkpt lat="48.87954" lon="1.99184">
        <ele>145</ele>
        <time>2014-02-23T09:50:33Z</time>
      </trkpt>
      <trkpt lat="48.87955" lon="1.99158">
        <ele>146</ele>
        <time>2014-02-23T09:50:48Z</time>
      </trkpt>
      <trkpt lat="48.87955" lon="1.99132">
        <ele>146</ele>
        <time>2014-02-23T09:50:57Z</time>
      </trkpt>
      <trkpt lat="48.87959" lon="1.99104">
        <ele>146</ele>
        <time>2014-02-23T09:51:24Z</time>
      </trkpt>
      <trkpt lat="48.87958" lon="1.99057">
        <ele>146</ele>
        <time>2014-02-23T09:51:52Z</time>
      </trkpt>
      <trkpt lat="48.8796" lon="1.99029">
        <ele>146</ele>
        <time>2014-02-23T09:52:00Z</time>
      </trkpt>
      <trkpt lat="48.88007" lon="1.98975">
        <ele>176</ele>
        <time>2014-02-23T09:52:43Z</time>
      </trkpt>
      <trkpt lat="48.88063" lon="1.98957">
        <ele>175.6</ele>
        <time>2014-02-23T09:53:04Z</time>
      </trkpt>
      <trkpt lat="48.88119" lon="1.98946">
        <ele>175.7</ele>
        <time>2014-02-23T09:53:31Z</time>
      </trkpt>
      <trkpt lat="48.88175" lon="1.9895">
        <ele>174.9</ele>
        <time>2014-02-23T09:54:02Z</time>
      </trkpt>
      <trkpt lat="48.8823" lon="1.9894">
        <ele>174.1</ele>
        <time>2014-02-23T09:54:52Z</time>
      </trkpt>
      <trkpt lat="48.88286" lon="1.98936">
        <ele>174</ele>
        <time>2014-02-23T09:55:43Z</time>
      </trkpt>
      <trkpt lat="48.88329" lon="1.98928">
        <ele>145</ele>
        <time>2014-02-23T09:56:19Z</time>
      </trkpt>
      <trkpt lat="48.88349" lon="1.98928">
        <ele>143</ele>
        <time>2014-02-23T09:56:36Z</time>
      </trkpt>
      <trkpt lat="48.88365" lon="1.98929">
        <ele>141</ele>
        <time>2014-02-23T09:56:51Z</time>
      </trkpt>
      <trkpt lat="48.88381" lon="1.98909">
        <ele>139</ele>
        <time>2014-02-23T09:57:14Z</time>
      </trkpt>
      <trkpt lat="48.88396" lon="1.98867">
        <ele>139</ele>
        <time>2014-02-23T09:57:36Z</time>
      </trkpt>
      <trkpt lat="48.88405" lon="1.98835">
        <ele>139</ele>
        <time>2014-02-23T09:57:54Z</time>
      </trkpt>
      <trkpt lat="48.88411" lon="1.98806">
        <ele>140</ele>
        <time>2014-02-23T09:58:11Z</time>
      </trkpt>
      <trkpt lat="48.88417" lon="1.98782">
        <ele>141</ele>
        <time>2014-02-23T09:58:27Z</time>
      </trkpt>
      <trkpt lat="48.88423" lon="1.98756">
        <ele>142</ele>
        <time>2014-02-23T09:58:37Z</time>
      </trkpt>
      <trkpt lat="48.88435" lon="1.98724">
        <ele>144</ele>
        <time>2014-02-23T09:58:55Z</time>
      </trkpt>
      <trkpt lat="48.88447" lon="1.98685">
        <ele>146</ele>
        <time>2014-02-23T09:59:16Z</time>
      </trkpt>
      <trkpt lat="48.8846" lon="1.9865">
        <ele>148</ele>
        <time>2014-02-23T09:59:44Z</time>
      </trkpt>
      <trkpt lat="48.88469" lon="1.98623">
        <ele>148</ele>
        <time>2014-02-23T10:00:03Z</time>
      </trkpt>
      <trkpt lat="48.88485" lon="1.98573">
        <ele>148</ele>
        <time>2014-02-23T10:00:34Z</time>
      </trkpt>
      <trkpt lat="48.88493" lon="1.98545">
        <ele>146</ele>
        <time>2014-02-23T10:00:45Z</time>
      </trkpt>
      <trkpt lat="48.88505" lon="1.98521">
        <ele>145</ele>
        <time>2014-02-23T10:00:59Z</time>
      </trkpt>
      <trkpt lat="48.88515" lon="1.98502">
        <ele>143</ele>
        <time>2014-02-23T10:01:13Z</time>
      </trkpt>
      <trkpt lat="48.88527" lon="1.9848">
        <ele>141</ele>
        <time>2014-02-23T10:01:34Z</time>
      </trkpt>
      <trkpt lat="48.88535" lon="1.98451">
        <ele>139</ele>
        <time>2014-02-23T10:01:47Z</time>
      </trkpt>
      <trkpt lat="48.88536" lon="1.98426">
        <ele>138</ele>
        <time>2014-02-23T10:01:58Z</time>
      </trkpt>
      <trkpt lat="48.88529" lon="1.98402">
        <ele>137</ele>
        <time>2014-02-23T10:02:06Z</time>
      </trkpt>
      <trkpt lat="48.88517" lon="1.98384">
        <ele>136</ele>
        <time>2014-02-23T10:02:16Z</time>
      </trkpt>
      <trkpt lat="48.88504" lon="1.98371">
        <ele>134</ele>
        <time>2014-02-23T10:02:43Z</time>
      </trkpt>
      <trkpt lat="48.88486" lon="1.98356">
        <ele>133</ele>
        <time>2014-02-23T10:02:55Z</time>
      </trkpt>
      <trkpt lat="48.88468" lon="1.9834">
        <ele>134</ele>
        <time>2014-02-23T10:03:10Z</time>
      </trkpt>
      <trkpt lat="48.88454" lon="1.98326">
        <ele>133</ele>
        <time>2014-02-23T10:03:25Z</time>
      </trkpt>
      <trkpt lat="48.88436" lon="1.98313">
        <ele>133</ele>
        <time>2014-02-23T10:03:40Z</time>
      </trkpt>
      <trkpt lat="48.88427" lon="1.98283">
        <ele>133</ele>
        <time>2014-02-23T10:03:59Z</time>
      </trkpt>
      <trkpt lat="48.88433" lon="1.98256">
        <ele>132</ele>
        <time>2014-02-23T10:04:09Z</time>
      </trkpt>
      <trkpt lat="48.88423" lon="1.98201">
        <ele>131</ele>
        <time>2014-02-23T10:04:35Z</time>
      </trkpt>
      <trkpt lat="48.88415" lon="1.98175">
        <ele>130</ele>
        <time>2014-02-23T10:04:44Z</time>
      </trkpt>
      <trkpt lat="48.88404" lon="1.98147">
        <ele>130</ele>
        <time>2014-02-23T10:04:57Z</time>
      </trkpt>
      <trkpt lat="48.88395" lon="1.98116">
        <ele>131</ele>
        <time>2014-02-23T10:05:11Z</time>
      </trkpt>
      <trkpt lat="48.88389" lon="1.98095">
        <ele>132</ele>
        <time>2014-02-23T10:05:23Z</time>
      </trkpt>
      <trkpt lat="48.88383" lon="1.98068">
        <ele>133</ele>
        <time>2014-02-23T10:05:38Z</time>
      </trkpt>
      <trkpt lat="48.88377" lon="1.98047">
        <ele>135</ele>
        <time>2014-02-23T10:05:52Z</time>
      </trkpt>
      <trkpt lat="48.88368" lon="1.97996">
        <ele>177</ele>
        <time>2014-02-23T10:06:23Z</time>
      </trkpt>
      <trkpt lat="48.88356" lon="1.97957">
        <ele>136</ele>
        <time>2014-02-23T10:06:35Z</time>
      </trkpt>
      <trkpt lat="48.88343" lon="1.97878">
        <ele>135</ele>
        <time>2014-02-23T10:07:15Z</time>
      </trkpt>
      <trkpt lat="48.88325" lon="1.97782">
        <ele>178</ele>
        <time>2014-02-23T10:08:11Z</time>
      </trkpt>
      <trkpt lat="48.88323" lon="1.97756">
        <ele>136</ele>
        <time>2014-02-23T10:08:23Z</time>
      </trkpt>
      <trkpt lat="48.88333" lon="1.97703">
        <ele>178</ele>
        <time>2014-02-23T10:08:54Z</time>
      </trkpt>
      <trkpt lat="48.88349" lon="1.97661">
        <ele>178</ele>
        <time>2014-02-23T10:08:56Z</time>
      </trkpt>
      <trkpt lat="48.88409" lon="1.97411">
        <ele>178</ele>
        <time>2014-02-23T10:09:26Z</time>
      </trkpt>
      <trkpt lat="48.8846" lon="1.97173">
        <ele>178</ele>
        <time>2014-02-23T10:10:02Z</time>
      </trkpt>
      <trkpt lat="48.88469" lon="1.97038">
        <ele>178</ele>
        <time>2014-02-23T10:10:27Z</time>
      </trkpt>
      <trkpt lat="48.88467" lon="1.97005">
        <ele>178</ele>
        <time>2014-02-23T10:10:35Z</time>
      </trkpt>
      <trkpt lat="48.88441" lon="1.96973">
        <ele>178.1</ele>
        <time>2014-02-23T10:11:47Z</time>
      </trkpt>
      <trkpt lat="48.88448" lon="1.96899">
        <ele>179</ele>
        <time>2014-02-23T10:12:14Z</time>
      </trkpt>
      <trkpt lat="48.88499" lon="1.96874">
        <ele>179</ele>
        <time>2014-02-23T10:12:54Z</time>
      </trkpt>
      <trkpt lat="48.88543" lon="1.96839">
        <ele>144</ele>
        <time>2014-02-23T10:13:25Z</time>
      </trkpt>
      <trkpt lat="48.88571" lon="1.96817">
        <ele>145</ele>
        <time>2014-02-23T10:13:39Z</time>
      </trkpt>
      <trkpt lat="48.88586" lon="1.96805">
        <ele>146</ele>
        <time>2014-02-23T10:13:50Z</time>
      </trkpt>
      <trkpt lat="48.88603" lon="1.9679">
        <ele>146</ele>
        <time>2014-02-23T10:14:08Z</time>
      </trkpt>
      <trkpt lat="48.88619" lon="1.96773">
        <ele>146</ele>
        <time>2014-02-23T10:14:23Z</time>
      </trkpt>
      <trkpt lat="48.88632" lon="1.96754">
        <ele>146</ele>
        <time>2014-02-23T10:14:40Z</time>
      </trkpt>
      <trkpt lat="48.88644" lon="1.96739">
        <ele>145</ele>
        <time>2014-02-23T10:14:52Z</time>
      </trkpt>
      <trkpt lat="48.88657" lon="1.96721">
        <ele>145</ele>
        <time>2014-02-23T10:15:06Z</time>
      </trkpt>
      <trkpt lat="48.8867" lon="1.96706">
        <ele>145</ele>
        <time>2014-02-23T10:15:17Z</time>
      </trkpt>
      <trkpt lat="48.88685" lon="1.9668">
        <ele>144</ele>
        <time>2014-02-23T10:15:33Z</time>
      </trkpt>
      <trkpt lat="48.887" lon="1.96655">
        <ele>146</ele>
        <time>2014-02-23T10:15:48Z</time>
      </trkpt>
      <trkpt lat="48.88712" lon="1.9664">
        <ele>147</ele>
        <time>2014-02-23T10:15:57Z</time>
      </trkpt>
      <trkpt lat="48.88725" lon="1.96624">
        <ele>148</ele>
        <time>2014-02-23T10:16:12Z</time>
      </trkpt>
      <trkpt lat="48.88739" lon="1.96603">
        <ele>148</ele>
        <time>2014-02-23T10:16:25Z</time>
      </trkpt>
      <trkpt lat="48.8876" lon="1.96569">
        <ele>148</ele>
        <time>2014-02-23T10:16:42Z</time>
      </trkpt>
      <trkpt lat="48.88774" lon="1.96578">
        <ele>147</ele>
        <time>2014-02-23T10:16:54Z</time>
      </trkpt>
      <trkpt lat="48.88784" lon="1.96601">
        <ele>147</ele>
        <time>2014-02-23T10:17:09Z</time>
      </trkpt>
      <trkpt lat="48.88791" lon="1.96623">
        <ele>146</ele>
        <time>2014-02-23T10:17:18Z</time>
      </trkpt>
      <trkpt lat="48.88802" lon="1.96641">
        <ele>146</ele>
        <time>2014-02-23T10:17:27Z</time>
      </trkpt>
      <trkpt lat="48.88828" lon="1.96688">
        <ele>177</ele>
        <time>2014-02-23T10:18:13Z</time>
      </trkpt>
      <trkpt lat="48.88843" lon="1.96713">
        <ele>177</ele>
        <time>2014-02-23T10:18:43Z</time>
      </trkpt>
      <trkpt lat="48.88862" lon="1.96744">
        <ele>177</ele>
        <time>2014-02-23T10:19:14Z</time>
      </trkpt>
      <trkpt lat="48.88897" lon="1.9681">
        <ele>176</ele>
        <time>2014-02-23T10:19:33Z</time>
      </trkpt>
      <trkpt lat="48.8893" lon="1.96877">
        <ele>175.7</ele>
        <time>2014-02-23T10:20:22Z</time>
      </trkpt>
      <trkpt lat="48.88969" lon="1.96936">
        <ele>175</ele>
        <time>2014-02-23T10:21:10Z</time>
      </trkpt>
      <trkpt lat="48.89013" lon="1.96987">
        <ele>174.2</ele>
        <time>2014-02-23T10:21:47Z</time>
      </trkpt>
      <trkpt lat="48.89049" lon="1.97054">
        <ele>174</ele>
        <time>2014-02-23T10:22:23Z</time>
      </trkpt>
      <trkpt lat="48.89089" lon="1.9711">
        <ele>174</ele>
        <time>2014-02-23T10:22:57Z</time>
      </trkpt>
      <trkpt lat="48.89123" lon="1.97144">
        <ele>143</ele>
        <time>2014-02-23T10:23:23Z</time>
      </trkpt>
      <trkpt lat="48.89154" lon="1.97156">
        <ele>142</ele>
        <time>2014-02-23T10:23:43Z</time>
      </trkpt>
      <trkpt lat="48.89177" lon="1.97164">
        <ele>142</ele>
        <time>2014-02-23T10:23:59Z</time>
      </trkpt>
      <trkpt lat="48.89193" lon="1.97171">
        <ele>142</ele>
        <time>2014-02-23T10:24:11Z</time>
      </trkpt>
      <trkpt lat="48.89211" lon="1.97177">
        <ele>142</ele>
        <time>2014-02-23T10:24:21Z</time>
      </trkpt>
      <trkpt lat="48.89226" lon="1.97183">
        <ele>142</ele>
        <time>2014-02-23T10:24:29Z</time>
      </trkpt>
      <trkpt lat="48.89242" lon="1.97189">
        <ele>142</ele>
        <time>2014-02-23T10:24:40Z</time>
      </trkpt>
      <trkpt lat="48.89267" lon="1.97207">
        <ele>142</ele>
        <time>2014-02-23T10:25:07Z</time>
      </trkpt>
      <trkpt lat="48.89281" lon="1.97216">
        <ele>143</ele>
        <time>2014-02-23T10:25:18Z</time>
      </trkpt>
      <trkpt lat="48.89292" lon="1.97211">
        <ele>143</ele>
        <time>2014-02-23T10:25:48Z</time>
      </trkpt>
      <trkpt lat="48.893" lon="1.97224">
        <ele>143</ele>
        <time>2014-02-23T10:26:20Z</time>
      </trkpt>
      <trkpt lat="48.89315" lon="1.97236">
        <ele>143</ele>
        <time>2014-02-23T10:26:28Z</time>
      </trkpt>
      <trkpt lat="48.89333" lon="1.97249">
        <ele>142</ele>
        <time>2014-02-23T10:26:42Z</time>
      </trkpt>
      <trkpt lat="48.8935" lon="1.97263">
        <ele>142</ele>
        <time>2014-02-23T10:26:56Z</time>
      </trkpt>
      <trkpt lat="48.89365" lon="1.97271">
        <ele>142</ele>
        <time>2014-02-23T10:27:07Z</time>
      </trkpt>
      <trkpt lat="48.8938" lon="1.9728">
        <ele>143</ele>
        <time>2014-02-23T10:27:22Z</time>
      </trkpt>
      <trkpt lat="48.89395" lon="1.9729">
        <ele>144</ele>
        <time>2014-02-23T10:27:32Z</time>
      </trkpt>
      <trkpt lat="48.89459" lon="1.9734">
        <ele>177</ele>
        <time>2014-02-23T10:28:02Z</time>
      </trkpt>
      <trkpt lat="48.89663" lon="1.97498">
        <ele>176</ele>
        <time>2014-02-23T10:28:29Z</time>
      </trkpt>
      <trkpt lat="48.89753" lon="1.9765">
        <ele>174.1</ele>
        <time>2014-02-23T10:28:47Z</time>
      </trkpt>
      <trkpt lat="48.89803" lon="1.97803">
        <ele>140</ele>
        <time>2014-02-23T10:29:25Z</time>
      </trkpt>
      <trkpt lat="48.89817" lon="1.97825">
        <ele>139</ele>
        <time>2014-02-23T10:29:40Z</time>
      </trkpt>
      <trkpt lat="48.89888" lon="1.97918">
        <ele>173</ele>
        <time>2014-02-23T10:30:11Z</time>
      </trkpt>
      <trkpt lat="48.90014" lon="1.98111">
        <ele>171.5</ele>
        <time>2014-02-23T10:30:36Z</time>
      </trkpt>
      <trkpt lat="48.90038" lon="1.9825">
        <ele>171</ele>
        <time>2014-02-23T10:30:50Z</time>
      </trkpt>
      <trkpt lat="48.90099" lon="1.98444">
        <ele>170.4</ele>
        <time>2014-02-23T10:31:21Z</time>
      </trkpt>
      <trkpt lat="48.9016" lon="1.98543">
        <ele>138</ele>
        <time>2014-02-23T10:31:44Z</time>
      </trkpt>
      <trkpt lat="48.90176" lon="1.98572">
        <ele>138</ele>
        <time>2014-02-23T10:36:05Z</time>
      </trkpt>
      <trkpt lat="48.90188" lon="1.98604">
        <ele>137</ele>
        <time>2014-02-23T10:36:25Z</time>
      </trkpt>
      <trkpt lat="48.90221" lon="1.98671">
        <ele>169</ele>
        <time>2014-02-23T10:37:21Z</time>
      </trkpt>
      <trkpt lat="48.90236" lon="1.98693">
        <ele>136</ele>
        <time>2014-02-23T10:37:34Z</time>
      </trkpt>
      <trkpt lat="48.90255" lon="1.987">
        <ele>133</ele>
        <time>2014-02-23T10:37:45Z</time>
      </trkpt>
      <trkpt lat="48.90273" lon="1.98698">
        <ele>131</ele>
        <time>2014-02-23T10:37:58Z</time>
      </trkpt>
      <trkpt lat="48.90292" lon="1.98682">
        <ele>130</ele>
        <time>2014-02-23T10:38:11Z</time>
      </trkpt>
      <trkpt lat="48.90312" lon="1.98662">
        <ele>130</ele>
        <time>2014-02-23T10:38:25Z</time>
      </trkpt>
      <trkpt lat="48.90326" lon="1.98652">
        <ele>131</ele>
        <time>2014-02-23T10:38:35Z</time>
      </trkpt>
      <trkpt lat="48.90344" lon="1.98645">
        <ele>132</ele>
        <time>2014-02-23T10:38:48Z</time>
      </trkpt>
      <trkpt lat="48.90365" lon="1.98639">
        <ele>132</ele>
        <time>2014-02-23T10:39:09Z</time>
      </trkpt>
      <trkpt lat="48.90381" lon="1.98635">
        <ele>130</ele>
        <time>2014-02-23T10:39:21Z</time>
      </trkpt>
      <trkpt lat="48.90402" lon="1.98628">
        <ele>129</ele>
        <time>2014-02-23T10:39:42Z</time>
      </trkpt>
      <trkpt lat="48.90422" lon="1.98624">
        <ele>129</ele>
        <time>2014-02-23T10:39:55Z</time>
      </trkpt>
      <trkpt lat="48.90438" lon="1.98622">
        <ele>130</ele>
        <time>2014-02-23T10:40:04Z</time>
      </trkpt>
      <trkpt lat="48.9048" lon="1.98604">
        <ele>131</ele>
        <time>2014-02-23T10:40:43Z</time>
      </trkpt>
      <trkpt lat="48.90497" lon="1.986">
        <ele>132</ele>
        <time>2014-02-23T10:40:52Z</time>
      </trkpt>
      <trkpt lat="48.90516" lon="1.98595">
        <ele>134</ele>
        <time>2014-02-23T10:41:06Z</time>
      </trkpt>
      <trkpt lat="48.90531" lon="1.98586">
        <ele>136</ele>
        <time>2014-02-23T10:41:17Z</time>
      </trkpt>
      <trkpt lat="48.90555" lon="1.98573">
        <ele>138</ele>
        <time>2014-02-23T10:41:33Z</time>
      </trkpt>
      <trkpt lat="48.90591" lon="1.98556">
        <ele>140</ele>
        <time>2014-02-23T10:42:16Z</time>
      </trkpt>
      <trkpt lat="48.90607" lon="1.98552">
        <ele>139</ele>
        <time>2014-02-23T10:42:29Z</time>
      </trkpt>
      <trkpt lat="48.90623" lon="1.98548">
        <ele>140</ele>
        <time>2014-02-23T10:42:43Z</time>
      </trkpt>
      <trkpt lat="48.90645" lon="1.98542">
        <ele>139</ele>
        <time>2014-02-23T10:43:01Z</time>
      </trkpt>
      <trkpt lat="48.9066" lon="1.98541">
        <ele>139</ele>
        <time>2014-02-23T10:43:15Z</time>
      </trkpt>
      <trkpt lat="48.90697" lon="1.98525">
        <ele>139</ele>
        <time>2014-02-23T10:43:53Z</time>
      </trkpt>
      <trkpt lat="48.9076" lon="1.98494">
        <ele>165.9</ele>
        <time>2014-02-23T10:44:57Z</time>
      </trkpt>
      <trkpt lat="48.90816" lon="1.98488">
        <ele>164.8</ele>
        <time>2014-02-23T10:45:35Z</time>
      </trkpt>
      <trkpt lat="48.90869" lon="1.98473">
        <ele>164.3</ele>
        <time>2014-02-23T10:46:10Z</time>
      </trkpt>
      <trkpt lat="48.90951" lon="1.98469">
        <ele>165.2</ele>
        <time>2014-02-23T10:47:15Z</time>
      </trkpt>
      <trkpt lat="48.91062" lon="1.9845">
        <ele>165</ele>
        <time>2014-02-23T10:48:10Z</time>
      </trkpt>
      <trkpt lat="48.91118" lon="1.98436">
        <ele>164.8</ele>
        <time>2014-02-23T10:48:55Z</time>
      </trkpt>
      <trkpt lat="48.91171" lon="1.98416">
        <ele>164</ele>
        <time>2014-02-23T10:49:43Z</time>
      </trkpt>
      <trkpt lat="48.91225" lon="1.98411">
        <ele>163.8</ele>
        <time>2014-02-23T10:50:19Z</time>
      </trkpt>
      <trkpt lat="48.91281" lon="1.98391">
        <ele>135</ele>
        <time>2014-02-23T10:50:52Z</time>
      </trkpt>
      <trkpt lat="48.91347" lon="1.98357">
        <ele>160.8</ele>
        <time>2014-02-23T10:51:49Z</time>
      </trkpt>
      <trkpt lat="48.91402" lon="1.98333">
        <ele>160</ele>
        <time>2014-02-23T10:52:26Z</time>
      </trkpt>
      <trkpt lat="48.91454" lon="1.98309">
        <ele>159.1</ele>
        <time>2014-02-23T10:53:21Z</time>
      </trkpt>
      <trkpt lat="48.91509" lon="1.98314">
        <ele>159</ele>
        <time>2014-02-23T10:53:57Z</time>
      </trkpt>
      <trkpt lat="48.91537" lon="1.98325">
        <ele>158.2</ele>
        <time>2014-02-23T10:54:44Z</time>
      </trkpt>
      <trkpt lat="48.91651" lon="1.98317">
        <ele>147.9</ele>
        <time>2014-02-23T10:56:08Z</time>
      </trkpt>
      <trkpt lat="48.91711" lon="1.98314">
        <ele>143.7</ele>
        <time>2014-02-23T10:56:51Z</time>
      </trkpt>
      <trkpt lat="48.91761" lon="1.98283">
        <ele>138.9</ele>
        <time>2014-02-23T10:57:37Z</time>
      </trkpt>
      <trkpt lat="48.91779" lon="1.98271">
        <ele>124</ele>
        <time>2014-02-23T10:57:54Z</time>
      </trkpt>
      <trkpt lat="48.91833" lon="1.98219">
        <ele>132.9</ele>
        <time>2014-02-23T10:58:50Z</time>
      </trkpt>
      <trkpt lat="48.91824" lon="1.98203">
        <ele>109</ele>
        <time>2014-02-23T11:04:26Z</time>
      </trkpt>
      <trkpt lat="48.91822" lon="1.98193">
        <ele>109</ele>
        <time>2014-02-23T11:12:26Z</time>
      </trkpt>
    </trkseg>
  </trk>
</gpx>